createdAt,value
2022-09-28T00:01:31.553Z,9.38
2022-09-28T00:03:59.834Z,9.38
2022-09-28T00:06:29.121Z,9.37
2022-09-28T00:08:56.346Z,9.38
2022-09-28T00:11:27.457Z,9.49
2022-09-28T00:14:00.260Z,9.47
2022-09-28T00:16:29.813Z,9.43
2022-09-28T00:18:56.732Z,9.37
2022-09-28T00:21:27.080Z,9.37
2022-09-28T00:24:14.830Z,9.43
2022-09-28T00:26:57.788Z,9.32
2022-09-28T00:29:33.732Z,9.38
2022-09-28T00:32:10.638Z,9.51
2022-09-28T00:34:41.319Z,9.40
2022-09-28T00:37:09.507Z,9.44
2022-09-28T00:39:38.523Z,9.39
2022-09-28T00:42:14.333Z,9.49
2022-09-28T00:44:46.998Z,9.34
2022-09-28T00:47:32.348Z,9.26
2022-09-28T00:50:08.810Z,9.19
2022-09-28T00:52:53.918Z,9.18
2022-09-28T00:55:45.676Z,9.16
2022-09-28T00:58:18.222Z,9.21
2022-09-28T01:00:44.948Z,9.24
2022-09-28T01:03:14.496Z,9.26
2022-09-28T01:05:42.036Z,9.29
2022-09-28T01:08:10.655Z,9.36
2022-09-28T01:10:39.553Z,9.40
2022-09-28T01:13:07.479Z,9.45
2022-09-28T01:15:40.618Z,9.54
2022-09-28T01:18:20.083Z,9.57
2022-09-28T01:21:11.538Z,9.54
2022-09-28T01:24:00.264Z,9.63
2022-09-28T01:26:29.925Z,9.60
2022-09-28T01:29:06.295Z,9.57
2022-09-28T01:31:36.505Z,9.58
2022-09-28T01:34:11.269Z,9.64
2022-09-28T01:36:46.217Z,9.76
2022-09-28T01:39:24.017Z,9.85
2022-09-28T01:41:53.473Z,9.81
2022-09-28T01:44:23.284Z,9.77
2022-09-28T01:46:51.520Z,9.75
2022-09-28T01:49:23.134Z,9.85
2022-09-28T01:52:20.173Z,9.73
2022-09-28T01:54:55.797Z,9.94
2022-09-28T01:57:41.096Z,9.86
2022-09-28T02:00:13.080Z,9.93
2022-09-28T02:03:07.815Z,9.85
2022-09-28T02:05:37.339Z,9.94
2022-09-28T02:08:07.327Z,9.93
2022-09-28T02:10:43.779Z,9.98
2022-09-28T02:13:19.728Z,9.90
2022-09-28T02:15:57.195Z,9.94
2022-09-28T02:18:24.729Z,10.00
2022-09-28T02:21:09.190Z,9.94
2022-09-28T02:23:39.683Z,9.90
2022-09-28T02:26:15.560Z,10.01
2022-09-28T02:28:43.058Z,9.89
2022-09-28T02:31:09.875Z,9.85
2022-09-28T02:33:39.541Z,9.88
2022-09-28T02:36:06.784Z,9.95
2022-09-28T02:38:33.718Z,9.97
2022-09-28T02:41:39.075Z,9.76
2022-09-28T02:44:43.480Z,9.70
2022-09-28T02:47:19.318Z,9.64
2022-09-28T02:50:04.352Z,9.61
2022-09-28T02:52:57.218Z,9.67
2022-09-28T02:55:46.194Z,9.58
2022-09-28T02:58:23.175Z,9.62
2022-09-28T03:01:09.768Z,9.60
2022-09-28T03:03:55.621Z,9.54
2022-09-28T03:06:30.598Z,9.64
2022-09-28T03:09:07.471Z,9.60
2022-09-28T03:11:39.105Z,9.76
2022-09-28T03:14:06.781Z,9.58
2022-09-28T03:16:33.677Z,9.60
2022-09-28T03:19:00.453Z,9.57
2022-09-28T03:21:27.249Z,9.61
2022-09-28T03:23:53.894Z,9.57
2022-09-28T03:26:20.617Z,9.64
2022-09-28T03:28:47.394Z,9.57
2022-09-28T03:31:14.327Z,9.41
2022-09-28T03:33:41.337Z,9.47
2022-09-28T03:36:09.582Z,9.56
2022-09-28T03:38:36.324Z,9.52
2022-09-28T03:41:03.250Z,9.49
2022-09-28T03:43:30.430Z,9.68
2022-09-28T03:45:59.473Z,9.62
2022-09-28T03:48:32.308Z,9.59
2022-09-28T03:51:11.270Z,9.44
2022-09-28T03:53:39.025Z,9.58
2022-09-28T03:56:08.370Z,9.55
2022-09-28T03:58:35.395Z,9.52
2022-09-28T04:01:07.788Z,9.57
2022-09-28T04:03:35.498Z,9.63
2022-09-28T04:06:02.280Z,9.50
2022-09-28T04:08:29.317Z,9.53
2022-09-28T04:11:00.186Z,9.47
2022-09-28T04:13:28.691Z,9.52
2022-09-28T04:15:57.564Z,9.60
2022-09-28T04:18:24.386Z,9.59
2022-09-28T04:21:11.830Z,9.57
2022-09-28T04:23:40.161Z,9.59
2022-09-28T04:26:16.626Z,9.57
2022-09-28T04:29:11.866Z,9.53
2022-09-28T04:31:41.899Z,9.44
2022-09-28T04:34:09.253Z,9.47
2022-09-28T04:36:35.928Z,9.50
2022-09-28T04:39:03.240Z,9.36
2022-09-28T04:41:29.906Z,9.37
2022-09-28T04:43:56.573Z,9.37
2022-09-28T04:46:23.374Z,9.34
2022-09-28T04:48:50.130Z,9.32
2022-09-28T04:51:16.809Z,9.35
2022-09-28T04:53:43.453Z,9.37
2022-09-28T04:56:12.676Z,9.40
2022-09-28T04:58:39.986Z,9.39
2022-09-28T05:01:10.562Z,9.37
2022-09-28T05:03:37.341Z,9.33
2022-09-28T05:06:04.538Z,9.55
2022-09-28T05:08:31.379Z,9.46
2022-09-28T05:10:59.985Z,9.40
2022-09-28T05:13:28.028Z,9.35
2022-09-28T05:15:59.721Z,9.61
2022-09-28T05:18:28.928Z,9.52
2022-09-28T05:20:55.723Z,9.52
2022-09-28T05:23:22.555Z,9.45
2022-09-28T05:25:49.727Z,9.36
2022-09-28T05:28:23.863Z,9.42
2022-09-28T05:30:50.615Z,9.58
2022-09-28T05:33:17.237Z,9.52
2022-09-28T05:35:44.384Z,9.51
2022-09-28T05:38:11.255Z,9.52
2022-09-28T05:40:38.088Z,9.47
2022-09-28T05:43:04.899Z,9.49
2022-09-28T05:45:31.703Z,9.54
2022-09-28T05:47:58.534Z,9.58
2022-09-28T05:50:25.369Z,9.60
2022-09-28T05:53:18.673Z,9.67
2022-09-28T05:55:45.398Z,9.68
2022-09-28T05:58:12.109Z,9.57
2022-09-28T06:00:38.778Z,9.49
2022-09-28T06:03:09.224Z,9.54
2022-09-28T06:05:37.596Z,9.55
2022-09-28T06:08:05.317Z,9.55
2022-09-28T06:10:32.725Z,9.61
2022-09-28T06:13:00.236Z,9.50
2022-09-28T06:15:29.188Z,9.67
2022-09-28T06:18:03.040Z,9.52
2022-09-28T06:20:34.802Z,9.61
2022-09-28T06:23:01.590Z,9.54
2022-09-28T06:25:28.824Z,9.71
2022-09-28T06:28:00.909Z,9.68
2022-09-28T06:30:29.098Z,9.70
2022-09-28T06:32:58.398Z,9.70
2022-09-28T06:35:27.427Z,9.63
2022-09-28T06:37:54.169Z,9.74
2022-09-28T06:40:22.184Z,9.81
2022-09-28T06:43:15.540Z,9.87
2022-09-28T06:45:43.585Z,9.79
2022-09-28T06:48:11.358Z,9.67
2022-09-28T06:50:40.983Z,9.67
2022-09-28T06:53:11.028Z,9.54
2022-09-28T06:55:42.490Z,9.61
2022-09-28T06:58:14.446Z,9.57
2022-09-28T07:00:41.650Z,9.58
2022-09-28T07:03:12.098Z,9.58
2022-09-28T07:05:45.132Z,9.51
2022-09-28T07:08:12.726Z,9.46
2022-09-28T07:10:48.018Z,9.51
2022-09-28T07:13:42.736Z,9.57
2022-09-28T07:16:03.636Z,9.53
2022-09-28T07:18:30.415Z,9.62
2022-09-28T07:20:57.696Z,9.77
2022-09-28T07:23:27.518Z,9.69
2022-09-28T07:25:54.566Z,9.82
2022-09-28T07:28:22.371Z,9.75
2022-09-28T07:30:49.190Z,9.74
2022-09-28T07:33:17.190Z,9.94
2022-09-28T07:35:55.434Z,9.75
2022-09-28T07:38:22.684Z,9.96
2022-09-28T07:41:08.126Z,10.07
2022-09-28T07:43:35.353Z,10.09
2022-09-28T07:46:02.262Z,10.12
2022-09-28T07:48:32.263Z,10.12
2022-09-28T07:51:00.135Z,10.16
2022-09-28T07:53:26.992Z,10.24
2022-09-28T07:55:55.646Z,10.18
2022-09-28T07:58:23.137Z,10.24
2022-09-28T08:00:50.457Z,10.29
2022-09-28T08:03:19.033Z,10.28
2022-09-28T08:05:46.966Z,10.33
2022-09-28T08:08:14.986Z,10.29
2022-09-28T08:10:47.217Z,10.34
2022-09-28T08:13:15.343Z,10.36
2022-09-28T08:15:42.769Z,10.30
2022-09-28T08:18:10.166Z,10.26
2022-09-28T08:20:55.528Z,10.31
2022-09-28T08:23:23.365Z,10.38
2022-09-28T08:25:54.096Z,10.32
2022-09-28T08:28:22.650Z,10.10
2022-09-28T08:30:50.260Z,10.48
2022-09-28T08:33:20.364Z,10.41
2022-09-28T08:35:48.353Z,10.54
2022-09-28T08:38:15.515Z,10.40
2022-09-28T08:41:12.218Z,10.49
2022-09-28T08:54:46.030Z,10.73
2022-09-28T08:57:15.551Z,10.70
2022-09-28T08:59:53.391Z,11.08
2022-09-28T09:02:33.700Z,10.69
2022-09-28T09:05:03.877Z,10.76
2022-09-28T09:08:00.977Z,10.86
2022-09-28T09:10:44.547Z,10.57
2022-09-28T09:13:48.454Z,10.59
2022-09-28T09:16:49.432Z,10.54
2022-09-28T09:19:27.429Z,10.35
2022-09-28T09:22:11.402Z,10.46
2022-09-28T09:24:38.119Z,10.50
2022-09-28T09:27:53.452Z,10.57
2022-09-28T09:30:29.684Z,10.56
2022-09-28T09:33:36.479Z,10.67
2022-09-28T09:36:20.306Z,10.64
2022-09-28T09:39:01.772Z,10.56
2022-09-28T09:41:32.086Z,10.82
2022-09-28T09:44:14.792Z,10.83
2022-09-28T09:46:58.682Z,11.13
2022-09-28T09:49:33.355Z,11.24
2022-09-28T09:52:06.492Z,11.34
2022-09-28T09:54:40.965Z,11.33
2022-09-28T09:57:17.401Z,11.51
2022-09-28T09:59:45.697Z,11.86
2022-09-28T10:02:25.293Z,11.66
2022-09-28T10:04:57.546Z,11.68
2022-09-28T10:07:51.187Z,11.82
2022-09-28T10:10:44.272Z,11.93
2022-09-28T10:13:11.289Z,11.73
2022-09-28T10:15:40.788Z,11.57
2022-09-28T10:18:12.738Z,11.77
2022-09-28T10:20:42.240Z,11.97
2022-09-28T10:23:23.195Z,11.72
2022-09-28T10:25:54.827Z,11.62
2022-09-28T10:28:38.541Z,11.84
2022-09-28T10:31:35.240Z,11.86
2022-09-28T10:34:02.758Z,12.26
2022-09-28T10:36:30.185Z,12.16
2022-09-28T10:38:57.975Z,12.29
2022-09-28T10:41:25.692Z,12.09
2022-09-28T10:44:08.599Z,12.01
2022-09-28T10:46:38.572Z,12.10
2022-09-28T10:49:13.331Z,12.08
2022-09-28T10:51:51.783Z,11.85
2022-09-28T10:54:28.770Z,11.95
2022-09-28T10:56:57.015Z,12.02
2022-09-28T10:59:29.764Z,11.80
2022-09-28T11:02:03.891Z,11.60
2022-09-28T11:04:39.152Z,11.53
2022-09-28T11:07:18.021Z,11.71
2022-09-28T11:09:48.866Z,11.88
2022-09-28T11:12:19.877Z,11.90
2022-09-28T11:14:52.691Z,12.14
2022-09-28T11:17:25.908Z,12.07
2022-09-28T11:19:53.910Z,12.14
2022-09-28T11:22:21.547Z,12.17
2022-09-28T11:24:49.595Z,11.90
2022-09-28T11:27:25.429Z,11.69
2022-09-28T11:30:01.315Z,11.90
2022-09-28T11:32:41.986Z,11.92
2022-09-28T11:35:18.407Z,11.54
2022-09-28T11:38:03.942Z,11.78
2022-09-28T11:40:54.389Z,11.98
2022-09-28T11:43:27.243Z,12.30
2022-09-28T11:45:59.902Z,12.45
2022-09-28T11:48:54.898Z,12.78
2022-09-28T11:51:26.838Z,12.62
2022-09-28T11:54:01.630Z,12.94
2022-09-28T11:56:46.440Z,13.21
2022-09-28T11:59:30.315Z,13.12
2022-09-28T12:02:01.373Z,13.15
2022-09-28T12:05:17.090Z,13.53
2022-09-28T12:07:54.654Z,13.24
2022-09-28T12:10:38.755Z,13.52
2022-09-28T12:13:16.589Z,13.42
2022-09-28T12:16:12.926Z,13.96
2022-09-28T12:18:51.640Z,14.46
2022-09-28T12:21:24.442Z,13.08
2022-09-28T12:24:01.020Z,13.44
2022-09-28T12:26:45.546Z,13.38
2022-09-28T12:29:16.249Z,13.12
2022-09-28T12:32:01.859Z,13.20
2022-09-28T12:34:28.588Z,13.15
2022-09-28T12:37:19.859Z,12.95
2022-09-28T12:40:05.533Z,13.40
2022-09-28T12:42:57.674Z,13.79
2022-09-28T12:46:13.433Z,13.58
2022-09-28T12:52:12.595Z,13.60
2022-09-28T12:54:54.424Z,13.60
2022-09-28T12:57:36.663Z,13.30
2022-09-28T13:00:09.994Z,13.79
2022-09-28T13:03:01.654Z,14.51
2022-09-28T13:05:38.141Z,14.26
2022-09-28T13:08:20.960Z,13.87
2022-09-28T13:10:59.230Z,15.08
2022-09-28T13:13:41.249Z,15.35
2022-09-28T13:16:23.414Z,15.19
2022-09-28T13:19:04.180Z,15.32
2022-09-28T13:22:17.544Z,15.33
2022-09-28T13:24:47.443Z,15.13
2022-09-28T13:27:20.237Z,15.40
2022-09-28T13:29:50.529Z,14.49
2022-09-28T13:32:19.352Z,14.74
2022-09-28T13:34:50.709Z,15.12
2022-09-28T13:37:28.174Z,14.75
2022-09-28T13:39:59.252Z,14.77
2022-09-28T13:42:44.958Z,15.06
2022-09-28T13:45:20.821Z,14.50
2022-09-28T13:48:01.577Z,14.42
2022-09-28T13:50:46.195Z,14.46
2022-09-28T13:53:22.112Z,14.54
2022-09-28T13:56:00.746Z,14.12
2022-09-28T13:58:42.405Z,13.89
2022-09-28T14:01:23.015Z,14.24
2022-09-28T14:04:13.802Z,14.79
2022-09-28T14:06:55.908Z,14.81
2022-09-28T14:09:40.989Z,14.97
2022-09-28T14:12:28.342Z,15.06
2022-09-28T14:14:55.179Z,14.87
2022-09-28T14:17:21.808Z,14.64
2022-09-28T14:20:02.037Z,14.26
2022-09-28T14:23:00.955Z,14.23
2022-09-28T14:25:33.377Z,14.42
2022-09-28T14:28:01.534Z,14.26
2022-09-28T14:30:43.688Z,14.51
2022-09-28T14:33:22.581Z,14.61
2022-09-28T14:36:02.716Z,14.26
2022-09-28T14:38:52.398Z,14.46
2022-09-28T14:41:34.460Z,14.19
2022-09-28T14:44:12.809Z,14.14
2022-09-28T14:46:45.611Z,13.95
2022-09-28T14:49:19.526Z,13.89
2022-09-28T14:51:58.409Z,14.06
2022-09-28T14:54:56.579Z,14.28
2022-09-28T14:57:31.283Z,14.16
2022-09-28T14:59:59.675Z,14.03
2022-09-28T15:02:38.957Z,13.83
2022-09-28T15:05:14.015Z,13.69
2022-09-28T15:07:47.956Z,13.32
2022-09-28T15:10:27.686Z,13.29
2022-09-28T15:12:56.098Z,13.29
2022-09-28T15:15:31.742Z,13.31
2022-09-28T15:18:05.310Z,13.39
2022-09-28T15:20:51.974Z,13.60
2022-09-28T15:23:26.949Z,13.31
2022-09-28T15:25:55.209Z,13.42
2022-09-28T15:28:23.903Z,13.54
2022-09-28T15:30:51.794Z,13.39
2022-09-28T15:33:43.102Z,12.92
2022-09-28T15:36:18.705Z,12.85
2022-09-28T15:38:57.519Z,12.73
2022-09-28T15:41:25.415Z,12.71
2022-09-28T15:44:07.428Z,12.25
2022-09-28T15:46:36.633Z,12.29
2022-09-28T15:49:04.933Z,12.14
2022-09-28T15:51:46.093Z,11.99
2022-09-28T15:54:20.588Z,11.98
2022-09-28T15:56:59.677Z,11.80
2022-09-28T15:59:33.002Z,11.80
2022-09-28T16:02:11.869Z,11.69
2022-09-28T16:04:55.165Z,11.69
2022-09-28T16:07:31.491Z,11.58
2022-09-28T16:10:14.393Z,11.59
2022-09-28T16:12:48.115Z,11.66
2022-09-28T16:15:21.633Z,11.55
2022-09-28T16:17:56.356Z,11.54
2022-09-28T16:20:32.198Z,11.49
2022-09-28T16:23:06.115Z,11.42
2022-09-28T16:25:35.803Z,11.40
2022-09-28T16:28:03.843Z,11.27
2022-09-28T16:30:34.410Z,11.36
2022-09-28T16:33:07.106Z,11.20
2022-09-28T16:35:50.879Z,11.17
2022-09-28T16:38:19.174Z,11.09
2022-09-28T16:40:49.708Z,11.05
2022-09-28T16:43:26.866Z,11.01
2022-09-28T16:45:58.460Z,11.01
2022-09-28T16:48:27.688Z,10.86
2022-09-28T16:50:55.160Z,10.89
2022-09-28T16:53:40.469Z,10.63
2022-09-28T16:56:07.990Z,10.55
2022-09-28T16:58:36.137Z,10.57
2022-09-28T17:01:06.119Z,10.58
2022-09-28T17:03:36.072Z,10.49
2022-09-28T17:06:06.646Z,10.37
2022-09-28T17:08:34.176Z,10.30
2022-09-28T17:11:24.143Z,10.27
2022-09-28T17:13:59.237Z,10.21
2022-09-28T17:16:58.182Z,10.12
2022-09-28T17:19:29.292Z,9.97
2022-09-28T17:21:58.063Z,9.84
2022-09-28T17:24:28.744Z,9.87
2022-09-28T17:26:57.375Z,9.83
2022-09-28T17:29:30.365Z,9.78
2022-09-28T17:31:59.157Z,9.57
2022-09-28T17:34:26.986Z,9.58
2022-09-28T17:36:55.300Z,9.44
2022-09-28T17:39:25.026Z,9.41
2022-09-28T17:41:51.949Z,9.37
2022-09-28T17:44:21.488Z,9.33
2022-09-28T17:46:51.034Z,9.28
2022-09-28T17:49:18.719Z,9.26
2022-09-28T17:51:45.871Z,9.18
2022-09-28T17:54:17.098Z,9.17
2022-09-28T17:56:43.978Z,9.10
2022-09-28T17:59:14.226Z,8.92
2022-09-28T18:01:41.890Z,8.89
2022-09-28T18:04:22.939Z,8.89
2022-09-28T18:06:53.162Z,8.85
2022-09-28T18:09:25.437Z,8.90
2022-09-28T18:12:00.308Z,8.89
2022-09-28T18:14:37.614Z,8.71
2022-09-28T18:17:17.506Z,8.75
2022-09-28T18:19:45.052Z,8.69
2022-09-28T18:22:13.586Z,8.70
2022-09-28T18:24:41.262Z,8.66
2022-09-28T18:27:08.479Z,8.63
2022-09-28T18:29:36.052Z,8.63
2022-09-28T18:32:03.617Z,8.47
2022-09-28T18:34:30.499Z,8.45
2022-09-28T18:36:57.282Z,8.43
2022-09-28T18:39:24.692Z,8.40
2022-09-28T18:41:52.065Z,8.37
2022-09-28T18:44:18.937Z,8.30
2022-09-28T18:46:45.750Z,8.33
2022-09-28T18:49:12.665Z,8.34
2022-09-28T18:51:40.850Z,8.34
2022-09-28T18:54:07.721Z,8.33
2022-09-28T18:56:37.308Z,8.36
2022-09-28T18:59:09.934Z,8.31
2022-09-28T19:01:41.542Z,8.26
2022-09-28T19:04:10.378Z,8.23
2022-09-28T19:06:40.768Z,8.21
2022-09-28T19:09:08.751Z,8.11
2022-09-28T19:11:36.259Z,8.08
2022-09-28T19:14:03.802Z,8.09
2022-09-28T19:16:33.777Z,8.11
2022-09-28T19:19:02.787Z,8.11
2022-09-28T19:21:30.441Z,8.16
2022-09-28T19:24:01.088Z,8.16
2022-09-28T19:26:28.753Z,8.02
2022-09-28T19:28:57.469Z,8.10
2022-09-28T19:31:26.131Z,8.09
2022-09-28T19:33:53.374Z,8.07
2022-09-28T19:36:24.277Z,8.08
2022-09-28T19:38:52.852Z,8.07
2022-09-28T19:41:46.509Z,8.07
2022-09-28T19:44:27.204Z,8.04
2022-09-28T19:47:06.732Z,8.02
2022-09-28T19:49:37.166Z,8.03
2022-09-28T19:52:15.840Z,7.99
2022-09-28T19:54:54.462Z,7.96
2022-09-28T19:57:24.586Z,7.95
2022-09-28T19:59:53.807Z,7.92
2022-09-28T20:02:22.997Z,7.91
2022-09-28T20:04:49.828Z,7.86
2022-09-28T20:07:16.569Z,7.88
2022-09-28T20:09:43.458Z,7.82
2022-09-28T20:12:10.129Z,7.83
2022-09-28T20:14:39.651Z,7.81
2022-09-28T20:17:07.785Z,7.83
2022-09-28T20:19:51.716Z,7.93
2022-09-28T20:22:21.311Z,7.97
2022-09-28T20:24:48.229Z,7.92
2022-09-28T20:27:15.152Z,8.00
2022-09-28T20:29:43.226Z,8.10
2022-09-28T20:32:11.668Z,8.05
2022-09-28T20:34:38.773Z,8.07
2022-09-28T20:37:31.220Z,7.98
2022-09-28T20:39:58.406Z,7.93
2022-09-28T20:42:25.507Z,7.79
2022-09-28T20:44:52.405Z,7.73
2022-09-28T20:47:20.293Z,7.70
2022-09-28T20:49:47.635Z,7.66
2022-09-28T20:52:14.346Z,7.69
2022-09-28T20:54:43.659Z,7.68
2022-09-28T20:57:20.841Z,7.65
2022-09-28T20:59:54.331Z,7.69
2022-09-28T21:02:22.497Z,7.64
2022-09-28T21:04:49.297Z,7.67
2022-09-28T21:07:16.301Z,7.67
2022-09-28T21:09:43.010Z,7.85
2022-09-28T21:12:09.972Z,7.85
2022-09-28T21:14:36.926Z,7.82
2022-09-28T21:17:04.062Z,7.85
2022-09-28T21:19:30.769Z,7.84
2022-09-28T21:21:57.512Z,7.83
2022-09-28T21:24:25.586Z,7.85
2022-09-28T21:26:52.297Z,7.82
2022-09-28T21:29:18.990Z,7.87
2022-09-28T21:31:46.749Z,7.80
2022-09-28T21:34:19.497Z,7.89
2022-09-28T21:36:51.467Z,7.81
2022-09-28T21:39:18.730Z,7.73
2022-09-28T21:41:45.462Z,7.71
2022-09-28T21:44:12.214Z,7.71
2022-09-28T21:46:39.268Z,7.63
2022-09-28T21:49:07.555Z,7.65
2022-09-28T21:51:35.302Z,7.70
2022-09-28T21:54:02.193Z,7.66
2022-09-28T21:56:28.861Z,7.61
2022-09-28T21:58:55.528Z,7.59
2022-09-28T22:01:25.639Z,7.56
2022-09-28T22:03:55.256Z,7.45
2022-09-28T22:06:23.770Z,7.39
2022-09-28T22:08:51.220Z,7.28
2022-09-28T22:11:23.256Z,7.28
2022-09-28T22:13:52.850Z,7.25
2022-09-28T22:16:21.982Z,7.22
2022-09-28T22:18:49.586Z,7.21
2022-09-28T22:21:22.392Z,7.09
2022-09-28T22:23:49.990Z,7.07
2022-09-28T22:26:25.547Z,7.10
2022-09-28T22:28:57.615Z,7.11
2022-09-28T22:31:30.265Z,7.11
2022-09-28T22:33:58.340Z,7.11
2022-09-28T22:36:26.581Z,7.09
2022-09-28T22:38:54.832Z,7.02
2022-09-28T22:41:22.016Z,7.02
2022-09-28T22:43:50.621Z,6.99
2022-09-28T22:46:23.566Z,7.01
2022-09-28T22:48:56.057Z,6.95
2022-09-28T22:51:24.199Z,6.93
2022-09-28T22:53:51.183Z,6.90
2022-09-28T22:56:19.136Z,6.90
2022-09-28T22:58:46.287Z,6.90
2022-09-28T23:01:14.357Z,6.76
2022-09-28T23:03:42.218Z,6.78
2022-09-28T23:06:09.974Z,6.83
2022-09-28T23:08:36.936Z,6.88
2022-09-28T23:11:04.084Z,6.90
2022-09-28T23:13:31.358Z,6.89
2022-09-28T23:16:00.567Z,6.96
2022-09-28T23:18:29.447Z,6.93
2022-09-28T23:20:57.724Z,6.94
2022-09-28T23:23:25.262Z,6.93
2022-09-28T23:25:52.937Z,6.94
2022-09-28T23:28:21.380Z,6.95
2022-09-28T23:30:48.564Z,6.83
2022-09-28T23:33:17.301Z,6.93
2022-09-28T23:35:44.089Z,6.94
2022-09-28T23:38:17.899Z,6.93
2022-09-28T23:40:46.371Z,6.79
2022-09-28T23:43:14.093Z,6.76
2022-09-28T23:45:43.631Z,6.82
2022-09-28T23:48:10.411Z,6.82
2022-09-28T23:50:37.244Z,6.81
2022-09-28T23:53:04.042Z,6.90
2022-09-28T23:55:30.762Z,6.95
2022-09-28T23:57:58.726Z,6.97
